createdAt,value
2023-05-20T00:00:27.575Z,1005.34
2023-05-20T00:01:27.547Z,1005.33
2023-05-20T00:02:27.737Z,1005.32
2023-05-20T00:03:27.664Z,1005.31
2023-05-20T00:04:27.561Z,1005.33
2023-05-20T00:05:27.510Z,1005.30
2023-05-20T00:06:27.482Z,1005.26
2023-05-20T00:07:27.474Z,1005.27
2023-05-20T00:08:27.473Z,1005.27
2023-05-20T00:09:27.438Z,1005.22
2023-05-20T00:10:27.445Z,1005.33
2023-05-20T00:11:27.414Z,1005.32
2023-05-20T00:12:27.423Z,1005.23
2023-05-20T00:13:27.404Z,1005.27
2023-05-20T00:14:27.380Z,1005.26
2023-05-20T00:15:27.363Z,1005.24
2023-05-20T00:16:27.373Z,1005.25
2023-05-20T00:17:27.399Z,1005.19
2023-05-20T00:18:27.347Z,1005.26
2023-05-20T00:19:27.348Z,1005.21
2023-05-20T00:20:27.304Z,1005.21
2023-05-20T00:21:27.281Z,1005.26
2023-05-20T00:22:27.264Z,1005.24
2023-05-20T00:23:27.272Z,1005.24
2023-05-20T00:24:27.251Z,1005.24
2023-05-20T00:25:27.237Z,1005.23
2023-05-20T00:26:27.217Z,1005.29
2023-05-20T00:27:27.243Z,1005.26
2023-05-20T00:28:27.247Z,1005.28
2023-05-20T00:29:27.177Z,1005.28
2023-05-20T00:30:27.183Z,1005.24
2023-05-20T00:31:27.186Z,1005.26
2023-05-20T00:32:27.298Z,1005.30
2023-05-20T00:33:27.120Z,1005.28
2023-05-20T00:34:27.111Z,1005.24
2023-05-20T00:35:27.105Z,1005.25
2023-05-20T00:36:27.093Z,1005.20
2023-05-20T00:37:27.096Z,1005.19
2023-05-20T00:38:27.055Z,1005.22
2023-05-20T00:39:27.048Z,1005.26
2023-05-20T00:40:27.031Z,1005.19
2023-05-20T00:41:27.035Z,1005.20
2023-05-20T00:42:27.038Z,1005.19
2023-05-20T00:43:26.990Z,1005.19
2023-05-20T00:44:29.545Z,1005.16
2023-05-20T00:45:26.972Z,1005.14
2023-05-20T00:46:27.116Z,1005.10
2023-05-20T00:47:26.965Z,1005.08
2023-05-20T00:48:26.928Z,1005.09
2023-05-20T00:49:27.530Z,1005.13
2023-05-20T00:50:26.911Z,1005.08
2023-05-20T00:51:26.898Z,1005.12
2023-05-20T00:52:26.880Z,1005.09
2023-05-20T00:53:26.887Z,1005.04
2023-05-20T00:54:26.845Z,1005.08
2023-05-20T00:55:26.845Z,1005.05
2023-05-20T00:56:26.843Z,1005.07
2023-05-20T00:57:26.828Z,1005.05
2023-05-20T00:58:26.795Z,1005.11
2023-05-20T00:59:26.780Z,1005.13
2023-05-20T01:00:26.807Z,1005.12
2023-05-20T01:01:26.778Z,1005.10
2023-05-20T01:02:26.896Z,1005.10
2023-05-20T01:03:26.841Z,1005.14
2023-05-20T01:04:26.712Z,1005.19
2023-05-20T01:05:26.716Z,1005.18
2023-05-20T01:06:26.682Z,1005.15
2023-05-20T01:07:26.671Z,1005.18
2023-05-20T01:08:26.660Z,1005.15
2023-05-20T01:09:26.671Z,1005.16
2023-05-20T01:10:26.648Z,1005.15
2023-05-20T01:11:26.626Z,1005.17
2023-05-20T01:12:26.627Z,1005.15
2023-05-20T01:13:26.599Z,1005.15
2023-05-20T01:14:26.607Z,1005.10
2023-05-20T01:15:26.570Z,1005.11
2023-05-20T01:16:26.693Z,1005.07
2023-05-20T01:17:26.564Z,1005.10
2023-05-20T01:18:26.529Z,1005.08
2023-05-20T01:19:26.675Z,1005.08
2023-05-20T01:20:26.516Z,1005.07
2023-05-20T01:21:26.488Z,1005.05
2023-05-20T01:22:26.482Z,1005.05
2023-05-20T01:23:26.475Z,1005.04
2023-05-20T01:24:26.471Z,1005.05
2023-05-20T01:25:26.472Z,1005.03
2023-05-20T01:26:26.426Z,1004.99
2023-05-20T01:27:26.410Z,1004.99
2023-05-20T01:28:26.411Z,1005.04
2023-05-20T01:29:26.382Z,1005.00
2023-05-20T01:30:26.372Z,1005.00
2023-05-20T01:31:26.393Z,1004.95
2023-05-20T01:32:26.391Z,1005.01
2023-05-20T01:33:28.033Z,1005.00
2023-05-20T01:34:26.323Z,1005.01
2023-05-20T01:35:26.304Z,1005.02
2023-05-20T01:36:26.290Z,1005.01
2023-05-20T01:37:26.274Z,1005.00
2023-05-20T01:38:26.277Z,1005.02
2023-05-20T01:39:26.252Z,1005.00
2023-05-20T01:40:26.238Z,1005.00
2023-05-20T01:41:26.223Z,1004.97
2023-05-20T01:42:26.224Z,1004.99
2023-05-20T01:43:26.211Z,1004.99
2023-05-20T01:44:26.196Z,1004.97
2023-05-20T01:45:26.165Z,1004.97
2023-05-20T01:46:27.066Z,1004.85
2023-05-20T01:47:26.171Z,1004.91
2023-05-20T01:48:26.153Z,1004.87
2023-05-20T01:49:26.121Z,1004.89
2023-05-20T01:50:26.101Z,1004.81
2023-05-20T01:51:26.088Z,1004.89
2023-05-20T01:52:26.089Z,1004.83
2023-05-20T01:53:26.060Z,1004.83
2023-05-20T01:54:26.054Z,1004.80
2023-05-20T01:55:26.058Z,1004.77
2023-05-20T01:56:26.038Z,1004.77
2023-05-20T01:57:26.046Z,1004.75
2023-05-20T01:58:25.994Z,1004.74
2023-05-20T01:59:25.979Z,1004.72
2023-05-20T02:00:25.976Z,1004.72
2023-05-20T02:01:26.002Z,1004.76
2023-05-20T02:02:25.957Z,1004.74
2023-05-20T02:03:25.975Z,1004.69
2023-05-20T02:04:25.940Z,1004.72
2023-05-20T02:05:26.027Z,1004.74
2023-05-20T02:06:25.902Z,1004.67
2023-05-20T02:07:25.872Z,1004.60
2023-05-20T02:08:25.859Z,1004.58
2023-05-20T02:09:26.512Z,1004.63
2023-05-20T02:10:25.851Z,1004.61
2023-05-20T02:11:25.856Z,1004.63
2023-05-20T02:12:25.807Z,1004.56
2023-05-20T02:13:25.796Z,1004.59
2023-05-20T02:14:25.788Z,1004.54
2023-05-20T02:15:25.780Z,1004.52
2023-05-20T02:16:25.813Z,1004.59
2023-05-20T02:17:25.740Z,1004.59
2023-05-20T02:18:25.728Z,1004.63
2023-05-20T02:19:25.873Z,1004.64
2023-05-20T02:20:25.755Z,1004.65
2023-05-20T02:21:25.692Z,1004.62
2023-05-20T02:22:25.716Z,1004.60
2023-05-20T02:23:25.669Z,1004.61
2023-05-20T02:24:25.670Z,1004.59
2023-05-20T02:25:25.649Z,1004.62
2023-05-20T02:26:25.627Z,1004.61
2023-05-20T02:27:25.609Z,1004.56
2023-05-20T02:28:25.614Z,1004.51
2023-05-20T02:29:25.596Z,1004.53
2023-05-20T02:30:25.590Z,1004.55
2023-05-20T02:31:25.592Z,1004.55
2023-05-20T02:32:25.546Z,1004.54
2023-05-20T02:33:25.536Z,1004.52
2023-05-20T02:34:25.599Z,1004.54
2023-05-20T02:35:25.511Z,1004.58
2023-05-20T02:36:25.604Z,1004.51
2023-05-20T02:37:25.475Z,1004.55
2023-05-20T02:38:25.468Z,1004.51
2023-05-20T02:39:25.465Z,1004.51
2023-05-20T02:40:25.441Z,1004.58
2023-05-20T02:41:25.430Z,1004.57
2023-05-20T02:42:25.415Z,1004.48
2023-05-20T02:43:25.416Z,1004.53
2023-05-20T02:44:25.400Z,1004.58
2023-05-20T02:45:25.373Z,1004.55
2023-05-20T02:46:25.429Z,1004.53
2023-05-20T02:47:25.395Z,1004.55
2023-05-20T02:48:25.352Z,1004.51
2023-05-20T02:49:25.316Z,1004.51
2023-05-20T02:50:25.316Z,1004.55
2023-05-20T02:51:25.290Z,1004.60
2023-05-20T02:52:25.300Z,1004.60
2023-05-20T02:53:25.281Z,1004.63
2023-05-20T02:54:25.266Z,1004.61
2023-05-20T02:55:25.234Z,1004.61
2023-05-20T02:56:25.220Z,1004.63
2023-05-20T02:57:25.228Z,1004.60
2023-05-20T02:58:25.211Z,1004.60
2023-05-20T02:59:25.183Z,1004.57
2023-05-20T03:00:25.181Z,1004.60
2023-05-20T03:01:25.190Z,1004.58
2023-05-20T03:02:25.239Z,1004.60
2023-05-20T03:03:25.130Z,1004.57
2023-05-20T03:04:25.153Z,1004.59
2023-05-20T03:05:25.102Z,1004.62
2023-05-20T03:06:25.101Z,1004.62
2023-05-20T03:07:25.105Z,1004.63
2023-05-20T03:08:25.089Z,1004.62
2023-05-20T03:09:25.059Z,1004.61
2023-05-20T03:10:25.037Z,1004.68
2023-05-20T03:11:25.037Z,1004.65
2023-05-20T03:12:25.022Z,1004.63
2023-05-20T03:13:24.996Z,1004.62
2023-05-20T03:14:24.978Z,1004.63
2023-05-20T03:15:24.968Z,1004.60
2023-05-20T03:16:25.008Z,1004.67
2023-05-20T03:17:25.010Z,1004.67
2023-05-20T03:18:24.926Z,1004.63
2023-05-20T03:19:24.965Z,1004.61
2023-05-20T03:20:24.898Z,1004.62
2023-05-20T03:21:24.930Z,1004.58
2023-05-20T03:22:24.871Z,1004.57
2023-05-20T03:23:24.858Z,1004.56
2023-05-20T03:24:24.871Z,1004.58
2023-05-20T03:25:24.844Z,1004.57
2023-05-20T03:26:24.830Z,1004.59
2023-05-20T03:27:24.803Z,1004.60
2023-05-20T03:28:24.788Z,1004.52
2023-05-20T03:29:24.777Z,1004.55
2023-05-20T03:30:24.762Z,1004.61
2023-05-20T03:31:24.767Z,1004.65
2023-05-20T03:32:24.755Z,1004.59
2023-05-20T03:33:24.725Z,1004.62
2023-05-20T03:34:24.710Z,1004.59
2023-05-20T03:35:24.710Z,1004.62
2023-05-20T03:36:24.693Z,1004.56
2023-05-20T03:37:24.669Z,1004.64
2023-05-20T03:38:24.660Z,1004.56
2023-05-20T03:39:24.644Z,1004.64
2023-05-20T03:40:24.673Z,1004.51
2023-05-20T03:41:24.619Z,1004.45
2023-05-20T03:42:24.602Z,1004.48
2023-05-20T03:43:24.591Z,1004.46
2023-05-20T03:44:24.574Z,1004.51
2023-05-20T03:45:24.586Z,1004.51
2023-05-20T03:46:24.594Z,1004.52
2023-05-20T03:47:24.559Z,1004.55
2023-05-20T03:48:24.520Z,1004.55
2023-05-20T03:49:24.542Z,1004.60
2023-05-20T03:50:24.505Z,1004.61
2023-05-20T03:51:24.480Z,1004.60
2023-05-20T03:52:24.464Z,1004.65
2023-05-20T03:53:24.456Z,1004.63
2023-05-20T03:54:24.439Z,1004.66
2023-05-20T03:55:24.439Z,1004.65
2023-05-20T03:56:24.456Z,1004.66
2023-05-20T03:57:24.401Z,1004.60
2023-05-20T03:58:24.386Z,1004.61
2023-05-20T03:59:24.389Z,1004.57
2023-05-20T04:00:24.381Z,1004.56
2023-05-20T04:01:24.345Z,1004.62
2023-05-20T04:02:24.384Z,1004.58
2023-05-20T04:03:24.347Z,1004.55
2023-05-20T04:04:24.378Z,1004.61
2023-05-20T04:05:24.292Z,1004.59
2023-05-20T04:06:24.281Z,1004.62
2023-05-20T04:07:24.266Z,1004.62
2023-05-20T04:08:24.249Z,1004.61
2023-05-20T04:09:24.267Z,1004.68
2023-05-20T04:10:24.244Z,1004.64
2023-05-20T04:11:24.215Z,1004.60
2023-05-20T04:12:24.218Z,1004.66
2023-05-20T04:13:24.208Z,1004.69
2023-05-20T04:14:24.185Z,1004.64
2023-05-20T04:15:24.161Z,1004.68
2023-05-20T04:16:24.229Z,1004.68
2023-05-20T04:17:24.137Z,1004.67
2023-05-20T04:18:24.138Z,1004.65
2023-05-20T04:19:24.266Z,1004.62
2023-05-20T04:20:24.095Z,1004.66
2023-05-20T04:21:24.087Z,1004.69
2023-05-20T04:22:24.064Z,1004.75
2023-05-20T04:23:24.072Z,1004.75
2023-05-20T04:24:24.039Z,1004.67
2023-05-20T04:25:24.032Z,1004.70
2023-05-20T04:26:24.009Z,1004.65
2023-05-20T04:27:24.021Z,1004.66
2023-05-20T04:28:24.149Z,1004.68
2023-05-20T04:29:23.975Z,1004.66
2023-05-20T04:30:23.974Z,1004.65
2023-05-20T04:31:23.963Z,1004.66
2023-05-20T04:32:23.980Z,1004.64
2023-05-20T04:33:23.938Z,1004.67
2023-05-20T04:34:23.904Z,1004.68
2023-05-20T04:35:23.892Z,1004.66
2023-05-20T04:36:23.876Z,1004.65
2023-05-20T04:37:23.885Z,1004.66
2023-05-20T04:38:23.864Z,1004.64
2023-05-20T04:39:23.895Z,1004.61
2023-05-20T04:40:23.836Z,1004.63
2023-05-20T04:41:23.811Z,1004.65
2023-05-20T04:42:23.824Z,1004.61
2023-05-20T04:43:23.784Z,1004.63
2023-05-20T04:44:23.809Z,1004.66
2023-05-20T04:45:23.760Z,1004.64
2023-05-20T04:46:23.779Z,1004.58
2023-05-20T04:47:23.743Z,1004.65
2023-05-20T04:48:23.715Z,1004.68
2023-05-20T04:49:23.714Z,1004.69
2023-05-20T04:50:23.688Z,1004.65
2023-05-20T04:51:23.694Z,1004.64
2023-05-20T04:52:23.678Z,1004.69
2023-05-20T04:53:23.688Z,1004.63
2023-05-20T04:54:23.645Z,1004.53
2023-05-20T04:55:23.625Z,1004.60
2023-05-20T04:56:23.630Z,1004.65
2023-05-20T04:57:23.606Z,1004.61
2023-05-20T04:58:23.611Z,1004.57
2023-05-20T04:59:23.579Z,1004.58
2023-05-20T05:00:23.603Z,1004.61
2023-05-20T05:01:23.643Z,1004.57
2023-05-20T05:02:23.557Z,1004.55
2023-05-20T05:03:23.527Z,1004.59
2023-05-20T05:04:24.537Z,1004.55
2023-05-20T05:05:23.513Z,1004.55
2023-05-20T05:06:23.501Z,1004.60
2023-05-20T05:07:23.476Z,1004.62
2023-05-20T05:08:23.478Z,1004.59
2023-05-20T05:09:23.456Z,1004.61
2023-05-20T05:10:23.482Z,1004.56
2023-05-20T05:11:23.447Z,1004.57
2023-05-20T05:12:23.436Z,1004.55
2023-05-20T05:13:23.394Z,1004.51
2023-05-20T05:14:23.382Z,1004.56
2023-05-20T05:15:23.394Z,1004.49
2023-05-20T05:16:23.479Z,1004.53
2023-05-20T05:17:23.342Z,1004.51
2023-05-20T05:18:23.327Z,1004.46
2023-05-20T05:19:23.590Z,1004.47
2023-05-20T05:20:23.313Z,1004.43
2023-05-20T05:21:23.298Z,1004.42
2023-05-20T05:22:23.293Z,1004.37
2023-05-20T05:23:23.325Z,1004.39
2023-05-20T05:24:23.304Z,1004.37
2023-05-20T05:25:24.015Z,1004.39
2023-05-20T05:26:23.288Z,1004.39
2023-05-20T05:27:23.305Z,1004.40
2023-05-20T05:28:23.199Z,1004.36
2023-05-20T05:29:23.206Z,1004.38
2023-05-20T05:30:23.173Z,1004.43
2023-05-20T05:31:23.161Z,1004.37
2023-05-20T05:32:23.377Z,1004.40
2023-05-20T05:33:23.178Z,1004.42
2023-05-20T05:34:23.146Z,1004.34
2023-05-20T05:35:23.129Z,1004.37
2023-05-20T05:36:23.112Z,1004.26
2023-05-20T05:37:23.084Z,1004.39
2023-05-20T05:38:23.086Z,1004.31
2023-05-20T05:39:23.054Z,1004.23
2023-05-20T05:40:23.047Z,1004.26
2023-05-20T05:41:23.039Z,1004.27
2023-05-20T05:42:23.034Z,1004.26
2023-05-20T05:43:23.048Z,1004.22
2023-05-20T05:44:22.995Z,1004.23
2023-05-20T05:45:22.974Z,1004.26
2023-05-20T05:46:23.032Z,1004.18
2023-05-20T05:47:23.054Z,1004.21
2023-05-20T05:48:23.005Z,1004.24
2023-05-20T05:49:22.923Z,1004.26
2023-05-20T05:50:22.948Z,1004.26
2023-05-20T05:51:22.910Z,1004.23
2023-05-20T05:52:22.938Z,1004.22
2023-05-20T05:53:22.986Z,1004.21
2023-05-20T05:54:23.510Z,1004.26
2023-05-20T05:55:22.871Z,1004.21
2023-05-20T05:56:22.841Z,1004.22
2023-05-20T05:57:22.830Z,1004.18
2023-05-20T05:58:22.809Z,1004.23
2023-05-20T05:59:22.795Z,1004.19
2023-05-20T06:00:22.783Z,1004.19
2023-05-20T06:01:22.822Z,1004.11
2023-05-20T06:02:22.905Z,1004.16
2023-05-20T06:03:22.996Z,1004.16
2023-05-20T06:04:22.907Z,1004.11
2023-05-20T06:05:22.718Z,1004.10
2023-05-20T06:06:22.716Z,1004.12
2023-05-20T06:07:22.713Z,1004.05
2023-05-20T06:08:22.689Z,1004.08
2023-05-20T06:09:22.663Z,1004.07
2023-05-20T06:10:22.652Z,1004.12
2023-05-20T06:11:22.648Z,1004.14
2023-05-20T06:12:22.625Z,1004.13
2023-05-20T06:13:22.613Z,1004.13
2023-05-20T06:14:22.594Z,1004.19
2023-05-20T06:15:22.581Z,1004.16
2023-05-20T06:16:22.582Z,1004.22
2023-05-20T06:17:22.585Z,1004.20
2023-05-20T06:18:22.545Z,1004.18
2023-05-20T06:19:22.632Z,1004.23
2023-05-20T06:20:22.563Z,1004.18
2023-05-20T06:21:22.517Z,1004.18
2023-05-20T06:22:22.492Z,1004.16
2023-05-20T06:23:22.478Z,1004.15
2023-05-20T06:24:24.488Z,1004.15
2023-05-20T06:25:22.469Z,1004.15
2023-05-20T06:26:22.454Z,1004.22
2023-05-20T06:27:22.422Z,1004.17
2023-05-20T06:28:22.409Z,1004.18
2023-05-20T06:29:22.399Z,1004.26
2023-05-20T06:30:22.402Z,1004.28
2023-05-20T06:31:22.434Z,1004.31
2023-05-20T06:32:22.375Z,1004.29
2023-05-20T06:33:22.355Z,1004.21
2023-05-20T06:34:22.343Z,1004.21
2023-05-20T06:35:22.339Z,1004.22
2023-05-20T06:36:22.326Z,1004.24
2023-05-20T06:37:22.297Z,1004.16
2023-05-20T06:38:22.282Z,1004.19
2023-05-20T06:39:22.269Z,1004.18
2023-05-20T06:40:22.270Z,1004.13
2023-05-20T06:41:22.279Z,1004.07
2023-05-20T06:42:22.232Z,1004.11
2023-05-20T06:43:22.227Z,1004.07
2023-05-20T06:44:22.217Z,1004.08
2023-05-20T06:45:22.202Z,1004.10
2023-05-20T06:46:22.213Z,1004.08
2023-05-20T06:47:22.181Z,1004.04
2023-05-20T06:48:22.160Z,1004.08
2023-05-20T06:49:22.154Z,1004.12
2023-05-20T06:50:22.141Z,1004.04
2023-05-20T06:51:22.113Z,1004.02
2023-05-20T06:52:22.129Z,1004.10
2023-05-20T06:53:22.114Z,1004.03
2023-05-20T06:54:22.103Z,1004.00
2023-05-20T06:55:22.090Z,1003.95
2023-05-20T06:56:22.060Z,1003.98
2023-05-20T06:57:22.037Z,1003.99
2023-05-20T06:58:22.044Z,1004.05
2023-05-20T06:59:22.008Z,1004.03
2023-05-20T07:00:22.021Z,1003.94
2023-05-20T07:01:22.049Z,1003.99
2023-05-20T07:02:22.006Z,1004.04
2023-05-20T07:03:21.978Z,1004.02
2023-05-20T07:04:22.024Z,1004.03
2023-05-20T07:05:21.934Z,1004.11
2023-05-20T07:06:21.922Z,1004.10
2023-05-20T07:07:21.905Z,1004.06
2023-05-20T07:08:21.925Z,1004.00
2023-05-20T07:09:21.881Z,1004.09
2023-05-20T07:10:21.864Z,1004.04
2023-05-20T07:11:21.848Z,1004.06
2023-05-20T07:12:21.852Z,1004.07
2023-05-20T07:13:21.838Z,1003.99
2023-05-20T07:14:21.817Z,1003.98
2023-05-20T07:15:21.801Z,1003.97
2023-05-20T07:16:21.830Z,1003.91
2023-05-20T07:17:21.795Z,1003.87
2023-05-20T07:18:21.762Z,1004.01
2023-05-20T07:19:21.781Z,1003.90
2023-05-20T07:20:21.735Z,1003.93
2023-05-20T07:21:21.718Z,1003.88
2023-05-20T07:22:23.011Z,1003.85
2023-05-20T07:23:21.702Z,1003.91
2023-05-20T07:24:21.715Z,1003.90
2023-05-20T07:25:21.676Z,1003.85
2023-05-20T07:26:21.670Z,1003.90
2023-05-20T07:27:21.653Z,1003.87
2023-05-20T07:28:21.640Z,1003.89
2023-05-20T07:29:21.616Z,1003.86
2023-05-20T07:30:21.602Z,1003.89
2023-05-20T07:31:21.628Z,1003.82
2023-05-20T07:32:21.595Z,1003.90
2023-05-20T07:33:21.565Z,1003.89
2023-05-20T07:34:21.548Z,1003.85
2023-05-20T07:35:21.563Z,1003.90
2023-05-20T07:36:21.548Z,1003.81
2023-05-20T07:37:21.511Z,1003.84
2023-05-20T07:38:21.503Z,1003.88
2023-05-20T07:39:21.493Z,1003.89
2023-05-20T07:40:21.505Z,1003.89
2023-05-20T07:41:21.675Z,1003.90
2023-05-20T07:42:21.447Z,1003.90
2023-05-20T07:43:21.431Z,1004.04
2023-05-20T07:44:21.468Z,1003.85
2023-05-20T07:45:21.423Z,1004.01
2023-05-20T07:46:21.430Z,1003.95
2023-05-20T07:47:21.428Z,1003.92
2023-05-20T07:48:21.370Z,1003.90
2023-05-20T07:49:21.356Z,1003.93
2023-05-20T07:50:21.368Z,1003.94
2023-05-20T07:50:50.363Z,1003.86
2023-05-20T07:51:51.081Z,1003.69
2023-05-20T07:52:56.362Z,1003.88
2023-05-20T07:53:51.364Z,1003.83
2023-05-20T07:54:50.328Z,1003.66
2023-05-20T07:55:50.318Z,1003.81
2023-05-20T07:56:50.285Z,1003.61
2023-05-20T07:57:50.267Z,1003.61
2023-05-20T07:58:50.284Z,1003.65
2023-05-20T07:59:50.258Z,1003.69
2023-05-20T08:00:50.228Z,1003.71
2023-05-20T08:01:50.270Z,1003.73
2023-05-20T08:02:50.400Z,1003.70
2023-05-20T08:03:50.403Z,1003.68
2023-05-20T08:04:50.209Z,1003.67
2023-05-20T08:05:50.172Z,1003.65
2023-05-20T08:06:51.089Z,1003.68
2023-05-20T08:07:50.174Z,1003.59
2023-05-20T08:08:50.154Z,1003.64
2023-05-20T08:09:50.123Z,1003.68
2023-05-20T08:10:50.097Z,1003.80
2023-05-20T08:11:50.219Z,1003.76
2023-05-20T08:12:50.091Z,1003.79
2023-05-20T08:13:50.106Z,1003.74
2023-05-20T08:14:50.055Z,1003.73
2023-05-20T08:15:50.048Z,1003.86
2023-05-20T08:16:51.085Z,1003.75
2023-05-20T08:17:50.064Z,1003.84
2023-05-20T08:18:50.077Z,1003.80
2023-05-20T08:19:49.996Z,1003.86
2023-05-20T08:20:49.970Z,1003.81
2023-05-20T08:21:49.957Z,1003.68
2023-05-20T08:22:49.963Z,1003.64
2023-05-20T08:23:49.927Z,1003.54
2023-05-20T08:24:49.921Z,1003.55
2023-05-20T08:25:49.916Z,1003.58
2023-05-20T08:26:49.908Z,1003.55
2023-05-20T08:27:49.928Z,1003.65
2023-05-20T08:28:49.874Z,1003.62
2023-05-20T08:29:49.852Z,1003.74
2023-05-20T08:30:49.852Z,1003.64
2023-05-20T08:31:49.839Z,1003.72
2023-05-20T08:32:49.827Z,1003.70
2023-05-20T08:33:49.811Z,1003.64
2023-05-20T08:34:49.808Z,1003.71
2023-05-20T08:35:49.780Z,1003.71
2023-05-20T08:36:49.771Z,1003.56
2023-05-20T08:37:49.749Z,1003.52
2023-05-20T08:38:49.733Z,1003.59
2023-05-20T08:39:49.724Z,1003.72
2023-05-20T08:40:49.724Z,1003.71
2023-05-20T08:41:49.713Z,1003.55
2023-05-20T08:42:49.681Z,1003.71
2023-05-20T08:43:49.692Z,1003.75
2023-05-20T08:44:49.661Z,1003.71
2023-05-20T08:45:49.663Z,1003.71
2023-05-20T08:46:49.728Z,1003.48
2023-05-20T08:47:49.657Z,1003.51
2023-05-20T08:48:49.631Z,1003.48
2023-05-20T08:49:49.620Z,1003.57
2023-05-20T08:50:49.602Z,1003.50
2023-05-20T08:51:49.569Z,1003.66
2023-05-20T08:52:49.557Z,1003.62
2023-05-20T08:53:49.562Z,1003.64
2023-05-20T08:54:49.525Z,1003.44
2023-05-20T08:55:49.541Z,1003.50
2023-05-20T08:56:49.511Z,1003.63
2023-05-20T08:57:49.499Z,1003.51
2023-05-20T08:58:49.474Z,1003.63
2023-05-20T08:59:49.655Z,1003.72
2023-05-20T09:00:49.495Z,1003.71
2023-05-20T09:01:49.500Z,1003.67
2023-05-20T09:02:49.459Z,1003.48
2023-05-20T09:03:49.423Z,1003.68
2023-05-20T09:04:49.551Z,1003.75
2023-05-20T09:05:49.400Z,1003.52
2023-05-20T09:06:49.381Z,1003.50
2023-05-20T09:07:49.364Z,1003.48
2023-05-20T09:08:49.357Z,1003.41
2023-05-20T09:09:49.359Z,1003.46
2023-05-20T09:10:49.319Z,1003.51
2023-05-20T09:11:49.311Z,1003.45
2023-05-20T09:12:49.297Z,1003.45
2023-05-20T09:13:49.320Z,1003.42
2023-05-20T09:14:49.294Z,1003.57
2023-05-20T09:15:49.326Z,1003.52
2023-05-20T09:16:49.316Z,1003.45
2023-05-20T09:17:49.255Z,1003.55
2023-05-20T09:18:49.287Z,1003.56
2023-05-20T09:19:49.242Z,1003.53
2023-05-20T09:20:49.190Z,1003.52
2023-05-20T09:21:49.194Z,1003.52
2023-05-20T09:22:49.165Z,1003.55
2023-05-20T09:23:49.209Z,1003.69
2023-05-20T09:24:49.140Z,1003.56
2023-05-20T09:25:49.133Z,1003.42
2023-05-20T09:26:49.111Z,1003.51
2023-05-20T09:27:49.114Z,1003.44
2023-05-20T09:28:49.101Z,1003.41
2023-05-20T09:29:49.074Z,1003.42
2023-05-20T09:30:49.061Z,1003.42
2023-05-20T09:31:49.106Z,1003.40
2023-05-20T09:32:49.238Z,1003.43
2023-05-20T09:33:49.023Z,1003.39
2023-05-20T09:34:49.010Z,1003.40
2023-05-20T09:35:49.034Z,1003.48
2023-05-20T09:36:48.994Z,1003.42
2023-05-20T09:37:48.997Z,1003.58
2023-05-20T09:38:48.958Z,1003.42
2023-05-20T09:39:48.942Z,1003.37
2023-05-20T09:40:48.931Z,1003.36
2023-05-20T09:41:48.918Z,1003.43
2023-05-20T09:42:48.921Z,1003.36
2023-05-20T09:43:48.898Z,1003.36
2023-05-20T09:44:48.875Z,1003.60
2023-05-20T09:45:48.887Z,1003.51
2023-05-20T09:46:48.871Z,1003.45
2023-05-20T09:47:48.920Z,1003.42
2023-05-20T09:48:48.847Z,1003.55
2023-05-20T09:49:48.815Z,1003.58
2023-05-20T09:50:48.798Z,1003.55
2023-05-20T09:51:48.799Z,1003.52
2023-05-20T09:52:48.775Z,1003.42
2023-05-20T09:53:48.763Z,1003.32
2023-05-20T09:54:48.781Z,1003.33
2023-05-20T09:55:48.744Z,1003.32
2023-05-20T09:56:48.740Z,1003.48
2023-05-20T09:57:48.708Z,1003.51
2023-05-20T09:58:48.710Z,1003.42
2023-05-20T09:59:48.728Z,1003.25
2023-05-20T10:00:48.697Z,1003.53
2023-05-20T10:01:48.819Z,1003.62
2023-05-20T10:02:48.788Z,1003.41
2023-05-20T10:03:48.763Z,1003.32
2023-05-20T10:04:48.624Z,1003.32
2023-05-20T10:05:48.647Z,1003.30
2023-05-20T10:06:48.637Z,1003.42
2023-05-20T10:07:48.595Z,1003.50
2023-05-20T10:08:48.600Z,1003.51
2023-05-20T10:09:48.566Z,1003.40
2023-05-20T10:10:48.564Z,1003.56
2023-05-20T10:11:48.532Z,1003.55
2023-05-20T10:12:48.525Z,1003.40
2023-05-20T10:13:48.533Z,1003.44
2023-05-20T10:14:48.510Z,1003.35
2023-05-20T10:15:48.518Z,1003.32
2023-05-20T10:16:48.474Z,1003.29
2023-05-20T10:17:48.557Z,1003.30
2023-05-20T10:18:48.468Z,1003.27
2023-05-20T10:19:48.491Z,1003.26
2023-05-20T10:20:48.459Z,1003.21
2023-05-20T10:21:48.408Z,1003.23
2023-05-20T10:22:48.397Z,1003.19
2023-05-20T10:23:48.382Z,1003.27
2023-05-20T10:24:48.389Z,1003.31
2023-05-20T10:25:48.357Z,1003.30
2023-05-20T10:26:48.357Z,1003.30
2023-05-20T10:27:48.361Z,1003.15
2023-05-20T10:28:48.334Z,1003.14
2023-05-20T10:30:48.291Z,1003.21
2023-05-20T10:31:48.285Z,1003.15
2023-05-20T10:32:48.399Z,1003.21
2023-05-20T10:33:48.301Z,1003.23
2023-05-20T10:34:48.239Z,1003.16
2023-05-20T10:35:48.258Z,1003.10
2023-05-20T10:36:48.233Z,1003.19
2023-05-20T10:37:48.211Z,1003.11
2023-05-20T10:38:48.202Z,1003.14
2023-05-20T10:39:48.208Z,1003.12
2023-05-20T10:40:48.166Z,1003.08
2023-05-20T10:41:48.157Z,1003.21
2023-05-20T10:42:48.156Z,1003.10
2023-05-20T10:43:48.134Z,1003.21
2023-05-20T10:44:48.125Z,1003.19
2023-05-20T10:45:48.106Z,1003.16
2023-05-20T10:47:03.814Z,1003.27
2023-05-20T10:47:48.171Z,1003.25
2023-05-20T10:48:48.163Z,1003.22
2023-05-20T10:49:48.080Z,1003.18
2023-05-20T10:50:48.048Z,1003.20
2023-05-20T10:51:48.046Z,1003.25
2023-05-20T10:52:48.029Z,1003.20
2023-05-20T10:53:48.010Z,1003.27
2023-05-20T10:54:50.137Z,1003.26
2023-05-20T10:55:47.983Z,1003.21
2023-05-20T10:56:47.959Z,1003.16
2023-05-20T10:57:47.962Z,1003.22
2023-05-20T10:58:47.965Z,1003.16
2023-05-20T10:59:47.933Z,1003.02
2023-05-20T11:00:50.305Z,1002.98
2023-05-20T11:01:47.916Z,1003.01
2023-05-20T11:02:48.123Z,1003.04
2023-05-20T11:03:47.996Z,1003.10
2023-05-20T11:04:47.963Z,1003.10
2023-05-20T11:05:47.849Z,1003.07
2023-05-20T11:06:47.865Z,1003.02
2023-05-20T11:07:48.005Z,1003.11
2023-05-20T11:08:47.833Z,1003.05
2023-05-20T11:09:47.808Z,1003.03
2023-05-20T11:10:47.794Z,1003.06
2023-05-20T11:11:47.812Z,1003.09
2023-05-20T11:12:47.782Z,1002.98
2023-05-20T11:13:47.757Z,1002.95
2023-05-20T11:14:47.748Z,1002.96
2023-05-20T11:15:47.749Z,1002.91
2023-05-20T11:16:47.815Z,1002.95
2023-05-20T11:17:47.738Z,1002.94
2023-05-20T11:18:47.731Z,1002.87
2023-05-20T11:19:47.685Z,1002.86
2023-05-20T11:20:47.688Z,1002.83
2023-05-20T11:21:47.675Z,1002.86
2023-05-20T11:22:47.729Z,1002.84
2023-05-20T11:23:47.656Z,1002.84
2023-05-20T11:24:47.631Z,1002.78
2023-05-20T11:25:47.625Z,1002.74
2023-05-20T11:26:47.603Z,1002.79
2023-05-20T11:27:47.601Z,1002.77
2023-05-20T11:28:47.672Z,1002.78
2023-05-20T11:29:47.579Z,1002.72
2023-05-20T11:30:47.563Z,1002.81
2023-05-20T11:31:47.571Z,1002.74
2023-05-20T11:32:47.555Z,1002.85
2023-05-20T11:33:47.592Z,1002.69
2023-05-20T11:34:47.580Z,1002.58
2023-05-20T11:35:47.493Z,1002.58
2023-05-20T11:36:47.476Z,1002.60
2023-05-20T11:37:47.464Z,1002.69
2023-05-20T11:38:47.456Z,1002.69
2023-05-20T11:39:47.476Z,1002.65
2023-05-20T11:40:51.019Z,1002.57
2023-05-20T11:41:47.414Z,1002.51
2023-05-20T11:42:47.412Z,1002.51
2023-05-20T11:43:47.398Z,1002.70
2023-05-20T11:44:47.387Z,1002.66
2023-05-20T11:45:47.399Z,1002.51
2023-05-20T11:46:47.397Z,1002.50
2023-05-20T11:47:47.382Z,1002.44
2023-05-20T11:48:47.343Z,1002.45
2023-05-20T11:49:47.312Z,1002.38
2023-05-20T11:50:47.323Z,1002.47
2023-05-20T11:51:47.287Z,1002.41
2023-05-20T11:52:47.274Z,1002.33
2023-05-20T11:53:47.284Z,1002.36
2023-05-20T11:54:47.248Z,1002.38
2023-05-20T11:55:47.269Z,1002.36
2023-05-20T11:56:47.225Z,1002.34
2023-05-20T11:57:47.223Z,1002.31
2023-05-20T11:58:47.214Z,1002.33
2023-05-20T11:59:47.187Z,1002.28
2023-05-20T12:00:51.761Z,1002.30
2023-05-20T12:01:48.167Z,1002.34
2023-05-20T12:02:47.274Z,1002.27
2023-05-20T12:03:47.364Z,1002.26
2023-05-20T12:04:47.187Z,1002.24
2023-05-20T12:05:47.111Z,1002.37